Historical Weather Data

Soule Park Golf Course
1033 East Ojai Ave
Ojai, CA 93023
Date ET
(Inches)
Rain
(Inches)
Temp °F
Humidity
Avg
Wind MPH
Avg
Solar Wm2
Avg
High Ave Low
5/1/18 0.04 0.05 58.5 52.6 48.7 86 1.1 63
5/2/18 0.06 0.00 59.4 54.6 50.2 82 1.3 77
5/3/18 0.21 0.00 78.4 62.2 47.1 67 2.0 343
5/4/18 0.24 0.00 88.8 68.4 46.7 53 2.5 330
5/5/18 0.22 0.00 90.8 70.3 51.4 48 2.2 290
5/6/18 0.16 0.00 86.1 64.4 46.8 56 1.8 231
5/7/18 0.23 0.00 81.8 64.9 44.9 58 2.2 347
5/8/18 0.21 0.00 85.4 65.2 46.8 63 2.4 309
5/9/18 0.22 0.00 82.1 65.0 48.7 71 2.3 336
5/10/18 0.21 0.00 79.4 64.8 49.7 69 2.2 332
5/11/18 0.05 0.01 63.8 56.1 48.1 88 1.4 85
5/12/18 0.06 0.03 63.8 57.5 54.5 84 1.1 78
5/13/18 0.11 0.00 70.2 57.3 48.8 79 2.0 183
5/14/18 0.19 0.00 70.8 58.6 45.3 76 2.7 331
5/15/18 0.20 0.00 71.9 58.8 45.8 73 2.6 351
5/16/18 0.21 0.00 75.5 59.8 43.4 66 2.6 348
5/17/18 0.21 0.00 72.2 59.9 44.7 68 2.6 346
5/18/18 0.19 0.00 70.9 59.0 45.7 75 2.7 330
5/19/18 0.19 0.00 71.0 59.4 47.7 77 2.7 335
5/20/18 0.07 0.00 65.8 59.1 49.8 78 1.9 98
5/21/18 0.05 0.00 62.5 58.9 55.0 78 1.3 61
5/22/18 0.12 0.00 70.1 59.8 50.9 75 2.3 184
5/23/18 0.13 0.00 72.2 59.0 48.4 77 2.0 217
5/24/18 0.04 0.00 63.0 57.6 51.6 83 1.6 63
5/25/18 0.18 0.00 68.8 59.2 49.5 72 2.8 299
5/26/18 0.20 0.00 74.6 59.8 45.5 71 2.6 335
5/27/18 0.21 0.00 76.2 61.5 46.5 71 2.7 347
5/28/18 0.22 0.00 83.3 64.2 48.3 71 2.7 347
5/29/18 0.19 0.00 81.0 63.5 54.0 79 2.7 309
5/30/18 0.04 0.00 63.8 59.4 56.5 90 1.8 62
5/31/18 0.15 0.00 72.9 61.9 51.6 75 2.5 228